Carolina, PR (00988)

8:33 AM AST on July 27, 2016 (GMT -0400)
Seguridad Virtual Carolina | | Change Station

Elev 50 ft 18.38 °N, 65.96 °W | Updated 7 minutes ago

Partly Cloudy
Partly Cloudy
85.0 °F
Feels Like 97 °F
N
2.0
Wind Variable Wind from SSE
Gusts 9.0 mph

Today
High -- | Low -- °F
--% Chance of Precip.
Yesterday
High -- | Low -- °F
Precip. -- in
Pressure 30.02 in
Visibility 10.0 miles
Clouds Few 2800 ft
Heat Index 97 °F
Dew Point 78 °F
Humidity 80%
Rainfall Not available.
Snow Depth Not available.
6:00 AM 7:00 PM
Last Quarter, 43% visible
METAR TJSJ 271156Z 08006KT 10SM FEW028 28/26 A3002 RMK AO2 SLP164 HZ ALQDS 60000 70013 T02830256 10283 20267 51014 $
Pressure 30.02 in
Visibility 10.0 miles
Clouds Few 2800 ft
Heat Index 97 °F
Dew Point 78 °F
Humidity 80%
Rainfall Not available.
Snow Depth Not available.
6:00 AM 7:00 PM
Last Quarter, 43% visible
METAR TJSJ 271156Z 08006KT 10SM FEW028 28/26 A3002 RMK AO2 SLP164 HZ ALQDS 60000 70013 T02830256 10283 20267 51014 $

10-Day Weather Forecast

Almanac

Astronomy

Jul. 27, 2016 Rise Set
Actual Time
Civil Twilight
Nautical Twilight
Astronomical Twilight
Moon
Length of Visible Light
Length of Day
Tomorrow will be .
, % of the Moon is Illuminated

Today's Extremes

State Highs State Lows

Community

WunderPhotos

Upload Photos

1,927,838 photos uploaded!

WunderBlog® & News

Nearby

Air Quality

  Air Quality AQ Index Pollutant
Not available.

Snow Depth

Station Depth Elevation

Earthquake Activity

City Distance Mag. Time & Date
Minimum magnitude displayed is 2.5.

Coastal Water Temperatures

Place Temperature

Stations

Nearby Weather Stations

Station Location Temp. Windchill Dew Point Humidity Wind Precip. Elev Updated Type
                   

Watches & Warnings

There are currently no watches in effect.